Time;durP1;ratioP1;P1;durP2;ratioP2;P2;SDS_P1;SDS_P2;PMS_P1;PMS_P2;Temp;Humidity;BMP_temperature;BMP_pressure;BME280_temperature;BME280_humidity;BME280_pressure;Samples;Min_cycle;Max_cycle;Signal;HPM_P1;HPM_P2
2023/03/19 00:01:09;;;;;;;42.10;37.58;;;9.80;99.90;;;;;;6247935;22;20404;-80
2023/03/19 00:03:35;;;;;;;45.38;39.80;;;9.70;99.90;;;;;;6275006;22;20083;-80
2023/03/19 00:06:01;;;;;;;43.80;39.10;;;9.80;99.90;;;;;;6275132;22;20666;-80
2023/03/19 00:08:27;;;;;;;43.90;39.35;;;9.70;99.90;;;;;;6274447;22;20019;-80
2023/03/19 00:10:53;;;;;;;42.78;38.15;;;9.80;99.90;;;;;;6275497;22;20112;-80
2023/03/19 00:13:19;;;;;;;43.97;38.80;;;9.70;99.90;;;;;;6247610;22;20061;-81
2023/03/19 00:15:46;;;;;;;41.40;36.97;;;9.70;99.90;;;;;;6247854;22;20038;-80
2023/03/19 00:18:11;;;;;;;42.90;38.42;;;9.70;99.90;;;;;;6275112;22;20129;-80
2023/03/19 00:20:37;;;;;;;43.83;38.30;;;9.60;99.90;;;;;;6275089;22;20434;-81
2023/03/19 00:23:03;;;;;;;43.97;39.28;;;9.60;99.90;;;;;;6247078;22;20018;-80
2023/03/19 00:25:29;;;;;;;47.13;41.45;;;9.60;99.90;;;;;;6247445;22;20011;-80
2023/03/19 00:27:54;;;;;;;48.65;41.72;;;9.60;99.90;;;;;;6274945;22;20011;-80
2023/03/19 00:30:21;;;;;;;48.25;41.50;;;9.50;99.90;;;;;;6275126;22;20008;-80
2023/03/19 00:32:47;;;;;;;44.50;37.60;;;9.50;99.90;;;;;;6247497;22;20008;-80
2023/03/19 00:35:13;;;;;;;42.33;37.72;;;9.50;99.90;;;;;;6247508;22;20050;-80
2023/03/19 00:37:40;;;;;;;43.72;35.25;;;9.50;99.90;;;;;;6274447;22;20016;-79
2023/03/19 00:40:07;;;;;;;45.22;37.97;;;9.50;99.90;;;;;;6274963;22;20003;-81
2023/03/19 00:42:33;;;;;;;42.45;36.72;;;9.50;99.90;;;;;;6247419;22;20011;-80
2023/03/19 00:44:59;;;;;;;44.55;39.22;;;9.60;99.90;;;;;;6275080;22;20015;-80
2023/03/19 00:47:25;;;;;;;42.05;35.88;;;9.60;99.90;;;;;;6274418;22;20323;-80
2023/03/19 00:49:51;;;;;;;39.42;32.47;;;9.60;99.90;;;;;;6247307;22;20022;-80
2023/03/19 00:52:17;;;;;;;34.70;30.30;;;9.60;99.90;;;;;;6246995;22;20039;-80
2023/03/19 00:54:42;;;;;;;36.83;32.85;;;9.70;99.90;;;;;;6247189;22;20011;-80
2023/03/19 00:57:08;;;;;;;35.95;31.90;;;9.70;99.90;;;;;;6274438;22;20099;-80
2023/03/19 00:59:34;;;;;;;34.78;31.08;;;9.70;99.90;;;;;;6274961;22;20011;-80
2023/03/19 01:01:59;;;;;;;36.40;32.55;;;9.70;99.90;;;;;;6274785;22;20086;-80
2023/03/19 01:04:25;;;;;;;35.58;30.85;;;9.80;99.90;;;;;;6274200;22;20484;-80
2023/03/19 01:06:50;;;;;;;40.85;32.97;;;9.70;99.90;;;;;;6274007;22;20026;-80
2023/03/19 01:09:16;;;;;;;35.95;32.08;;;9.70;99.90;;;;;;6274334;22;20004;-80
2023/03/19 01:11:42;;;;;;;33.33;28.83;;;9.70;99.90;;;;;;6274711;22;20012;-80
2023/03/19 01:14:08;;;;;;;29.23;26.10;;;9.70;99.90;;;;;;6247142;22;20015;-80
2023/03/19 01:16:33;;;;;;;35.78;28.35;;;9.70;99.90;;;;;;6274600;22;20016;-80
2023/03/19 01:19:00;;;;;;;33.67;30.08;;;9.70;99.90;;;;;;6247086;22;20018;-80
2023/03/19 01:21:29;;;;;;;33.03;29.35;;;9.70;99.90;;;;;;6274094;22;20330;-80
2023/03/19 01:23:55;;;;;;;31.25;27.90;;;9.80;99.90;;;;;;6246913;22;20027;-80
2023/03/19 01:26:22;;;;;;;31.20;28.02;;;9.80;99.90;;;;;;6246822;22;20022;-80
2023/03/19 01:28:48;;;;;;;32.72;28.95;;;9.80;99.90;;;;;;6246805;22;20091;-79
2023/03/19 01:31:13;;;;;;;30.10;26.83;;;9.80;99.90;;;;;;6274722;22;20031;-80
2023/03/19 01:33:39;;;;;;;34.63;29.65;;;9.80;99.90;;;;;;6246342;22;20012;-80
2023/03/19 01:36:06;;;;;;;34.17;28.05;;;9.80;99.90;;;;;;6246746;22;20047;-80
2023/03/19 01:38:32;;;;;;;30.88;26.10;;;9.80;99.90;;;;;;6221254;22;20012;-80
2023/03/19 01:40:58;;;;;;;29.65;26.15;;;9.80;99.90;;;;;;6247227;22;20011;-80
2023/03/19 01:43:26;;;;;;;33.95;26.90;;;9.90;99.90;;;;;;6274370;22;20069;-80
2023/03/19 01:45:57;;;;;;;33.92;26.98;;;9.90;99.90;;;;;;6274221;22;20086;-80
2023/03/19 01:48:26;;;;;;;28.70;25.58;;;9.80;99.90;;;;;;6246277;22;20365;-81
2023/03/19 01:50:54;;;;;;;30.63;26.48;;;9.80;99.90;;;;;;6246820;22;20335;-81
2023/03/19 01:53:24;;;;;;;27.95;24.95;;;9.90;99.90;;;;;;6246763;22;20019;-80
2023/03/19 01:55:54;;;;;;;29.38;26.00;;;9.90;99.90;;;;;;6274303;22;20122;-80
2023/03/19 01:58:20;;;;;;;28.85;21.85;;;9.90;99.90;;;;;;6247009;22;20115;-80
2023/03/19 02:00:46;;;;;;;31.15;26.35;;;9.90;99.90;;;;;;6274488;22;20018;-80
2023/03/19 02:03:12;;;;;;;28.23;24.95;;;9.90;99.90;;;;;;6245885;22;20087;-80
2023/03/19 02:05:40;;;;;;;31.48;26.25;;;10.00;99.90;;;;;;6246697;22;20047;-80
2023/03/19 02:08:10;;;;;;;31.40;25.02;;;9.90;99.90;;;;;;6221180;22;20044;-80
2023/03/19 02:10:36;;;;;;;28.27;24.13;;;9.90;99.90;;;;;;6247101;22;20008;-80
2023/03/19 02:13:03;;;;;;;28.15;23.83;;;9.80;99.90;;;;;;6220916;22;20039;-80
2023/03/19 02:15:28;;;;;;;29.60;24.63;;;10.10;99.90;;;;;;6246852;22;20067;-80
2023/03/19 02:17:54;;;;;;;27.38;22.52;;;9.90;99.90;;;;;;6245985;22;20019;-80
2023/03/19 02:20:43;;;;;;;26.25;23.50;;;9.90;99.90;;;;;;6274032;22;20093;-80
2023/03/19 02:23:24;;;;;;;25.50;22.13;;;9.90;99.90;;;;;;6247046;22;20030;-80
2023/03/19 02:25:53;;;;;;;27.25;23.55;;;9.80;99.90;;;;;;6246351;22;20019;-81
2023/03/19 02:28:21;;;;;;;27.70;22.45;;;9.80;99.90;;;;;;6246300;22;20015;-80
2023/03/19 02:30:47;;;;;;;30.58;24.67;;;9.80;99.90;;;;;;6246805;22;20035;-80
2023/03/19 02:33:16;;;;;;;27.13;22.13;;;9.80;99.90;;;;;;6246000;22;20004;-80
2023/03/19 02:35:45;;;;;;;26.55;21.83;;;9.80;99.90;;;;;;6246664;22;20043;-81
2023/03/19 02:38:12;;;;;;;26.95;21.33;;;9.80;99.90;;;;;;6246322;22;20016;-80
2023/03/19 02:40:56;;;;;;;27.20;22.20;;;9.80;99.90;;;;;;6246548;22;20015;-80
2023/03/19 02:43:21;;;;;;;25.33;21.73;;;9.80;99.90;;;;;;6274031;22;20016;-80
2023/03/19 02:45:47;;;;;;;22.40;20.00;;;9.80;99.90;;;;;;6246536;22;20019;-80
2023/03/19 02:48:13;;;;;;;24.00;18.00;;;9.80;99.90;;;;;;6220608;22;20098;-81
2023/03/19 02:50:38;;;;;;;26.85;20.23;;;9.80;99.90;;;;;;6221242;22;20024;-81
2023/03/19 02:53:04;;;;;;;24.88;20.58;;;9.70;99.90;;;;;;6246602;22;20015;-80
2023/03/19 02:55:30;;;;;;;24.23;21.17;;;9.70;99.90;;;;;;6273392;22;20008;-80
2023/03/19 02:57:55;;;;;;;26.17;21.63;;;9.70;99.90;;;;;;6246289;22;20083;-81
2023/03/19 03:00:21;;;;;;;25.35;20.85;;;9.80;99.90;;;;;;6246889;22;20072;-80
2023/03/19 03:02:47;;;;;;;24.30;20.42;;;9.60;99.90;;;;;;6240724;23;20012;-80
2023/03/19 03:05:13;;;;;;;21.73;17.98;;;9.60;99.90;;;;;;6241628;23;20040;-80
2023/03/19 03:07:39;;;;;;;21.58;18.38;;;9.70;99.90;;;;;;6241239;23;20469;-80
2023/03/19 03:10:07;;;;;;;27.45;22.27;;;9.90;99.90;;;;;;6243220;22;20012;-80
2023/03/19 03:12:33;;;;;;;32.45;24.83;;;9.60;99.90;;;;;;6241640;23;20031;-80
2023/03/19 03:14:58;;;;;;;21.45;18.98;;;9.60;99.90;;;;;;6241395;23;20008;-81
2023/03/19 03:17:25;;;;;;;32.42;25.15;;;9.70;99.90;;;;;;6242596;22;20012;-80
2023/03/19 03:19:52;;;;;;;30.45;23.55;;;9.70;99.90;;;;;;6242814;22;20146;-80
2023/03/19 03:22:17;;;;;;;24.85;20.98;;;9.60;99.90;;;;;;6243123;22;20070;-80
2023/03/19 03:24:43;;;;;;;27.63;22.52;;;9.60;99.90;;;;;;6216330;23;20020;-80
2023/03/19 03:27:09;;;;;;;25.40;20.75;;;9.60;99.90;;;;;;6217683;23;20091;-80
2023/03/19 03:29:35;;;;;;;20.35;18.25;;;9.60;99.90;;;;;;6217154;23;20094;-80
2023/03/19 03:32:01;;;;;;;21.88;18.48;;;9.60;99.90;;;;;;6243191;23;20078;-80
2023/03/19 03:34:26;;;;;;;20.63;17.13;;;9.60;99.90;;;;;;6217706;23;20094;-81
2023/03/19 03:36:52;;;;;;;20.95;18.63;;;9.60;99.90;;;;;;6242873;23;20633;-80
2023/03/19 03:39:18;;;;;;;22.95;18.75;;;9.60;99.90;;;;;;6218112;23;20016;-80
2023/03/19 03:41:44;;;;;;;20.63;18.45;;;9.60;99.90;;;;;;6242892;23;20012;-80
2023/03/19 03:44:10;;;;;;;18.80;16.52;;;9.80;99.90;;;;;;6242276;23;20016;-80
2023/03/19 03:46:36;;;;;;;26.02;19.70;;;9.60;99.90;;;;;;6217594;23;20012;-80
2023/03/19 03:49:02;;;;;;;24.95;18.85;;;9.60;99.90;;;;;;6244180;22;20016;-80
2023/03/19 03:51:27;;;;;;;22.63;20.17;;;9.60;99.90;;;;;;6217445;23;20019;-80
2023/03/19 03:53:53;;;;;;;23.23;19.95;;;9.60;99.90;;;;;;6242516;23;20008;-80
2023/03/19 03:56:18;;;;;;;26.50;20.95;;;9.60;99.90;;;;;;6244203;22;20284;-80
2023/03/19 03:58:44;;;;;;;29.20;22.05;;;9.70;99.90;;;;;;6216871;23;20031;-80
2023/03/19 04:01:15;;;;;;;28.10;21.55;;;9.50;99.90;;;;;;6244733;22;20034;-79
2023/03/19 04:03:40;;;;;;;25.00;20.92;;;9.70;99.90;;;;;;6242689;23;20081;-80
2023/03/19 04:06:06;;;;;;;28.08;22.10;;;9.50;99.90;;;;;;6242556;23;20420;-79
2023/03/19 04:08:32;;;;;;;26.83;21.85;;;9.50;99.90;;;;;;6244109;22;20442;-79
2023/03/19 04:10:58;;;;;;;26.20;21.40;;;9.50;99.90;;;;;;6243059;23;20012;-80
2023/03/19 04:13:24;;;;;;;23.13;20.70;;;9.50;99.90;;;;;;6241973;23;20023;-80
2023/03/19 04:15:50;;;;;;;27.63;20.48;;;9.40;99.90;;;;;;6242764;23;20087;-80
2023/03/19 04:18:15;;;;;;;24.85;21.25;;;9.40;99.90;;;;;;6242840;23;20050;-80
2023/03/19 04:20:41;;;;;;;24.52;21.70;;;9.40;99.90;;;;;;6244558;22;20012;-80
2023/03/19 04:23:07;;;;;;;22.98;20.45;;;9.40;99.90;;;;;;6242626;23;20020;-80
2023/03/19 04:25:33;;;;;;;25.33;22.30;;;9.40;99.90;;;;;;6242704;23;20020;-80
2023/03/19 04:27:58;;;;;;;30.63;22.65;;;9.40;99.90;;;;;;6243781;22;20519;-80
2023/03/19 04:30:24;;;;;;;24.80;21.40;;;9.30;99.90;;;;;;6244139;22;20018;-80
2023/03/19 04:32:50;;;;;;;24.75;22.15;;;9.30;99.90;;;;;;6244238;22;20092;-80
2023/03/19 04:35:17;;;;;;;25.45;20.70;;;9.50;99.90;;;;;;6244130;22;20461;-80
2023/03/19 04:37:47;;;;;;;23.98;21.33;;;9.30;99.90;;;;;;6244174;22;20019;-80
2023/03/19 04:40:13;;;;;;;20.73;18.27;;;9.30;99.90;;;;;;6244456;22;20016;-80
2023/03/19 04:42:40;;;;;;;23.55;20.02;;;9.30;99.90;;;;;;6242226;23;20016;-80
2023/03/19 04:45:06;;;;;;;22.70;17.77;;;9.30;99.90;;;;;;6244317;22;20016;-80
2023/03/19 04:47:32;;;;;;;23.52;18.08;;;9.40;99.90;;;;;;6242003;23;20008;-80
2023/03/19 04:49:57;;;;;;;24.90;18.20;;;9.40;99.90;;;;;;6243853;22;20091;-80
2023/03/19 04:52:23;;;;;;;21.38;18.30;;;9.40;99.90;;;;;;6242271;23;20016;-80
2023/03/19 04:54:49;;;;;;;18.33;16.50;;;9.40;99.90;;;;;;6243695;22;20434;-80
2023/03/19 04:57:14;;;;;;;22.25;17.02;;;9.40;99.90;;;;;;6243146;22;20023;-81
2023/03/19 04:59:40;;;;;;;23.55;16.42;;;9.40;99.90;;;;;;6242068;23;20008;-80
2023/03/19 05:02:06;;;;;;;20.05;17.88;;;9.30;99.90;;;;;;6242749;22;20051;-80
2023/03/19 05:04:32;;;;;;;20.75;16.25;;;9.30;99.90;;;;;;6274658;22;20015;-80
2023/03/19 05:06:58;;;;;;;18.45;16.55;;;9.20;99.90;;;;;;6274477;22;20141;-80
2023/03/19 05:09:24;;;;;;;20.35;16.10;;;9.20;99.90;;;;;;6274515;22;20008;-80
2023/03/19 05:11:50;;;;;;;18.35;16.45;;;9.10;99.90;;;;;;6246706;22;20007;-80
2023/03/19 05:14:16;;;;;;;17.65;15.02;;;9.20;99.90;;;;;;6221643;22;20007;-80
2023/03/19 05:16:41;;;;;;;19.45;16.77;;;9.00;99.90;;;;;;6247137;22;20086;-81
2023/03/19 05:19:07;;;;;;;20.77;16.48;;;8.90;99.90;;;;;;6221639;22;20020;-80
2023/03/19 05:21:33;;;;;;;20.67;16.60;;;8.80;99.90;;;;;;6221665;22;20046;-81
2023/03/19 05:23:59;;;;;;;20.05;16.63;;;8.70;99.90;;;;;;6221748;22;20323;-80
2023/03/19 05:26:24;;;;;;;20.05;16.55;;;8.70;99.90;;;;;;6273721;22;20417;-80
2023/03/19 05:28:50;;;;;;;23.73;18.33;;;8.60;99.90;;;;;;6274212;22;20330;-80
2023/03/19 05:31:15;;;;;;;18.90;15.88;;;8.60;99.90;;;;;;6221699;22;20018;-80
2023/03/19 05:33:41;;;;;;;21.10;16.40;;;8.50;99.90;;;;;;6246842;22;20016;-80
2023/03/19 05:36:07;;;;;;;18.90;16.90;;;8.40;99.90;;;;;;6274353;22;20038;-80
2023/03/19 05:38:32;;;;;;;23.05;18.08;;;8.30;99.90;;;;;;6274119;22;20012;-80
2023/03/19 05:41:06;;;;;;;24.60;18.73;;;8.30;99.90;;;;;;6273603;22;20011;-80
2023/03/19 05:43:32;;;;;;;15.52;13.85;;;8.20;99.90;;;;;;6246894;22;20015;-80
2023/03/19 05:45:57;;;;;;;20.20;16.95;;;8.20;99.90;;;;;;6221523;22;20319;-82
2023/03/19 05:48:24;;;;;;;19.15;15.82;;;8.10;99.90;;;;;;6246071;22;20030;-80
2023/03/19 05:50:51;;;;;;;21.35;17.95;;;8.00;99.90;;;;;;6246600;22;20090;-81
2023/03/19 05:53:17;;;;;;;29.55;19.83;;;8.00;99.90;;;;;;6273705;22;20012;-80
2023/03/19 05:55:43;;;;;;;26.60;19.25;;;8.00;99.90;;;;;;6246072;22;20287;-80
2023/03/19 05:58:09;;;;;;;29.27;20.67;;;8.20;99.90;;;;;;6274112;22;20011;-80
2023/03/19 06:00:34;;;;;;;25.67;19.00;;;7.90;99.90;;;;;;6274070;22;20548;-80
2023/03/19 06:03:00;;;;;;;20.08;16.88;;;7.90;99.90;;;;;;6273746;22;20019;-80
2023/03/19 06:05:26;;;;;;;18.20;15.43;;;7.90;99.90;;;;;;6221173;22;20020;-80
2023/03/19 06:07:52;;;;;;;20.02;16.70;;;7.80;99.90;;;;;;6246372;22;20060;-80
2023/03/19 06:10:17;;;;;;;20.15;16.88;;;7.80;99.90;;;;;;6220721;22;20396;-80
2023/03/19 06:12:43;;;;;;;27.77;18.77;;;7.80;99.90;;;;;;6273578;22;20007;-80
2023/03/19 06:15:12;;;;;;;23.13;16.50;;;7.80;99.90;;;;;;6273967;22;20372;-80
2023/03/19 06:17:37;;;;;;;20.17;16.25;;;7.70;99.90;;;;;;6220926;22;20023;-80
2023/03/19 06:20:03;;;;;;;21.00;16.48;;;7.80;99.90;;;;;;6273742;22;20346;-82
2023/03/19 06:22:29;;;;;;;26.23;19.60;;;7.80;99.90;;;;;;6246324;22;20008;-82
2023/03/19 06:24:55;;;;;;;20.33;16.95;;;7.90;99.90;;;;;;6245843;22;20065;-80
2023/03/19 06:27:20;;;;;;;26.13;18.77;;;7.80;99.90;;;;;;6246261;22;20457;-80
2023/03/19 06:29:46;;;;;;;22.58;17.98;;;7.80;99.90;;;;;;6246131;22;20023;-80
2023/03/19 06:32:12;;;;;;;33.13;21.05;;;7.80;99.90;;;;;;6246652;22;20041;-79
2023/03/19 06:34:38;;;;;;;19.17;17.13;;;7.90;99.90;;;;;;6273777;22;20087;-80
2023/03/19 06:37:03;;;;;;;24.33;19.85;;;7.90;99.90;;;;;;6246488;22;20450;-80
2023/03/19 06:39:29;;;;;;;25.45;19.85;;;7.90;99.90;;;;;;6245633;22;20438;-80
2023/03/19 06:41:55;;;;;;;20.58;18.08;;;8.00;99.90;;;;;;6246225;22;20050;-80
2023/03/19 06:44:20;;;;;;;24.35;19.20;;;8.30;99.90;;;;;;6246328;22;20422;-80
2023/03/19 06:46:46;;;;;;;28.65;21.60;;;8.20;99.90;;;;;;6246278;22;20016;-80
2023/03/19 06:49:12;;;;;;;20.70;16.83;;;8.30;99.90;;;;;;6246171;22;20015;-79
2023/03/19 06:51:37;;;;;;;25.13;18.75;;;8.90;99.90;;;;;;6273813;22;20105;-79
2023/03/19 06:54:03;;;;;;;26.40;17.83;;;8.50;99.90;;;;;;6273020;22;20464;-79
2023/03/19 06:56:28;;;;;;;19.67;16.63;;;8.60;99.90;;;;;;6246465;22;20034;-79
2023/03/19 06:58:54;;;;;;;25.85;16.85;;;8.60;99.90;;;;;;6274787;22;20442;-79
2023/03/19 07:01:20;;;;;;;19.63;17.17;;;8.70;99.90;;;;;;6276085;22;20452;-80
2023/03/19 07:03:46;;;;;;;23.33;17.05;;;8.70;99.90;;;;;;6275278;22;20066;-80
2023/03/19 07:06:12;;;;;;;21.02;16.35;;;8.80;99.90;;;;;;6275710;22;20024;-80
2023/03/19 07:08:37;;;;;;;18.23;14.30;;;8.80;99.90;;;;;;6275066;22;20125;-78
2023/03/19 07:11:07;;;;;;;19.83;14.73;;;8.80;99.90;;;;;;6248066;22;20012;-80
2023/03/19 07:13:33;;;;;;;17.48;13.82;;;8.90;99.90;;;;;;6275086;22;20095;-80
2023/03/19 07:15:59;;;;;;;17.25;14.57;;;9.00;99.90;;;;;;6248050;22;20508;-80
2023/03/19 07:18:25;;;;;;;17.95;13.88;;;9.10;99.90;;;;;;6275334;22;20077;-80
2023/03/19 07:20:51;;;;;;;15.02;13.50;;;9.20;99.90;;;;;;6247750;22;20015;-80
2023/03/19 07:23:17;;;;;;;19.60;14.48;;;9.30;99.90;;;;;;6274390;22;20012;-80
2023/03/19 07:25:43;;;;;;;15.40;13.45;;;9.30;99.90;;;;;;6246275;22;20040;-80
2023/03/19 07:28:09;;;;;;;16.00;13.60;;;9.50;99.90;;;;;;6273621;22;20011;-80
2023/03/19 07:30:37;;;;;;;15.32;13.57;;;9.50;99.90;;;;;;6274184;22;20008;-80
2023/03/19 07:33:02;;;;;;;16.30;14.25;;;9.50;99.90;;;;;;6247032;22;20043;-80
2023/03/19 07:35:28;;;;;;;16.75;14.27;;;9.60;99.90;;;;;;6222601;22;20016;-80
2023/03/19 07:37:54;;;;;;;19.70;15.60;;;9.60;99.90;;;;;;6247048;22;20326;-81
2023/03/19 07:40:20;;;;;;;18.50;15.70;;;9.70;99.90;;;;;;6274689;22;20090;-81
2023/03/19 07:42:46;;;;;;;15.60;13.23;;;9.80;99.90;;;;;;6247745;22;20059;-80
2023/03/19 07:45:12;;;;;;;17.55;15.13;;;9.90;99.90;;;;;;6247652;22;20019;-80
2023/03/19 07:47:38;;;;;;;16.60;14.40;;;9.80;99.90;;;;;;6275915;22;20086;-80
2023/03/19 07:50:04;;;;;;;21.00;16.98;;;10.10;99.90;;;;;;6247769;22;20093;-81
2023/03/19 07:52:30;;;;;;;20.65;17.40;;;9.90;99.90;;;;;;6274206;22;20438;-80
2023/03/19 07:54:56;;;;;;;19.02;16.48;;;10.20;99.90;;;;;;6247612;22;20016;-81
2023/03/19 07:57:24;;;;;;;19.77;17.00;;;10.10;99.90;;;;;;6275001;22;20039;-81
2023/03/19 07:59:49;;;;;;;21.33;17.48;;;10.20;99.90;;;;;;6275085;22;20015;-80
2023/03/19 08:02:18;;;;;;;19.52;16.40;;;10.20;99.90;;;;;;6274934;22;20004;-80
2023/03/19 08:04:43;;;;;;;20.45;16.95;;;10.20;99.90;;;;;;6247456;22;20015;-80
2023/03/19 08:07:12;;;;;;;22.92;16.85;;;10.40;99.90;;;;;;6246700;22;20027;-81
2023/03/19 08:09:39;;;;;;;19.23;15.50;;;10.40;99.90;;;;;;6274602;22;20008;-81
2023/03/19 08:12:06;;;;;;;25.52;18.60;;;10.40;99.90;;;;;;6247285;22;20058;-80
2023/03/19 08:14:32;;;;;;;19.95;17.45;;;10.50;99.90;;;;;;6275023;22;20024;-81
2023/03/19 08:16:59;;;;;;;20.23;16.33;;;10.70;99.90;;;;;;6247576;22;20065;-81
2023/03/19 08:19:24;;;;;;;17.23;14.68;;;10.80;99.90;;;;;;6275032;22;20391;-81
2023/03/19 08:21:50;;;;;;;16.38;14.68;;;10.80;99.90;;;;;;6274295;22;20039;-80
2023/03/19 08:24:17;;;;;;;16.67;14.98;;;10.80;99.90;;;;;;6247367;22;20468;-81
2023/03/19 08:26:43;;;;;;;17.48;14.38;;;10.90;99.90;;;;;;6274942;22;20058;-80
2023/03/19 08:29:09;;;;;;;17.30;15.05;;;10.90;99.90;;;;;;6247285;22;20361;-80
2023/03/19 08:31:35;;;;;;;17.23;15.10;;;11.10;99.90;;;;;;6274899;22;20043;-81
2023/03/19 08:34:03;;;;;;;19.83;15.48;;;11.00;99.90;;;;;;6247293;22;20458;-80
2023/03/19 08:36:30;;;;;;;17.15;14.32;;;11.00;99.90;;;;;;6274595;22;20012;-81
2023/03/19 08:38:57;;;;;;;17.98;16.00;;;10.90;99.90;;;;;;6274656;22;20125;-80
2023/03/19 08:41:24;;;;;;;18.05;14.63;;;10.90;99.90;;;;;;6247614;22;20047;-80
2023/03/19 08:43:50;;;;;;;16.13;14.20;;;11.00;99.90;;;;;;6274629;22;20027;-81
2023/03/19 08:46:16;;;;;;;19.35;14.40;;;11.20;99.90;;;;;;6247137;22;20031;-80
2023/03/19 08:48:42;;;;;;;15.73;14.13;;;11.30;99.90;;;;;;6246377;22;20007;-80
2023/03/19 08:51:08;;;;;;;15.63;14.02;;;11.40;99.90;;;;;;6247040;22;20019;-81
2023/03/19 08:53:35;;;;;;;14.57;13.07;;;11.50;99.90;;;;;;6274724;22;20011;-80
2023/03/19 08:56:03;;;;;;;14.82;12.23;;;11.40;99.90;;;;;;6274430;22;20375;-81
2023/03/19 08:58:29;;;;;;;15.48;13.40;;;11.40;99.90;;;;;;6274442;22;20019;-81
2023/03/19 09:01:22;;;;;;;15.05;12.73;;;11.50;99.90;;;;;;6274548;22;20026;-81
2023/03/19 09:03:48;;;;;;;15.13;11.55;;;11.60;99.90;;;;;;6268464;22;20051;-81
2023/03/19 09:06:14;;;;;;;14.40;12.13;;;11.70;99.90;;;;;;6274588;22;20439;-81
2023/03/19 09:08:40;;;;;;;13.07;11.15;;;11.80;99.90;;;;;;6274379;22;20008;-80
2023/03/19 09:11:06;;;;;;;12.48;11.18;;;12.00;99.90;;;;;;6274326;22;20012;-81
2023/03/19 09:13:31;;;;;;;14.38;10.95;;;12.20;99.90;;;;;;6273871;22;20075;-81
2023/03/19 09:15:57;;;;;;;11.25;9.65;;;12.50;99.90;;;;;;6273778;22;20016;-80
2023/03/19 09:18:24;;;;;;;10.93;9.77;;;12.70;99.90;;;;;;6273611;22;20007;-81
2023/03/19 09:20:53;;;;;;;9.43;8.13;;;13.00;99.90;;;;;;6246740;22;20011;-81
2023/03/19 09:23:19;;;;;;;13.55;9.50;;;13.20;99.90;;;;;;6246675;22;20042;-81
2023/03/19 09:25:45;;;;;;;10.15;8.55;;;13.40;99.90;;;;;;6246410;22;20069;-81
2023/03/19 09:28:11;;;;;;;9.98;8.52;;;13.40;99.90;;;;;;6273770;22;20079;-80
2023/03/19 09:30:38;;;;;;;10.25;8.60;;;13.40;99.90;;;;;;6273610;22;20387;-81
2023/03/19 09:33:04;;;;;;;9.45;8.45;;;13.40;99.90;;;;;;6273500;22;20077;-81
2023/03/19 09:35:31;;;;;;;9.32;8.35;;;13.30;99.90;;;;;;6274134;22;20019;-81
2023/03/19 09:38:00;;;;;;;9.77;8.55;;;13.30;99.90;;;;;;6273935;22;20008;-80
2023/03/19 09:40:32;;;;;;;10.75;8.77;;;13.30;99.90;;;;;;6246397;22;20041;-80
2023/03/19 09:43:10;;;;;;;11.13;9.60;;;13.40;99.90;;;;;;6273299;22;20450;-80
2023/03/19 09:45:37;;;;;;;12.27;9.23;;;13.50;99.90;;;;;;6273723;22;20019;-80
2023/03/19 09:48:06;;;;;;;11.43;9.75;;;13.50;99.90;;;;;;6273462;22;20003;-80
2023/03/19 09:50:33;;;;;;;11.38;9.27;;;13.50;99.90;;;;;;6273770;22;20307;-80
2023/03/19 09:53:22;;;;;;;9.85;8.85;;;13.60;99.90;;;;;;6246264;22;20026;-80
2023/03/19 09:55:51;;;;;;;12.38;9.95;;;13.70;99.90;;;;;;6246140;22;20038;-80
2023/03/19 09:58:25;;;;;;;11.27;9.95;;;13.90;99.90;;;;;;6246084;22;20149;-80
2023/03/19 10:00:52;;;;;;;11.30;9.93;;;14.10;99.90;;;;;;6220883;22;20022;-80
2023/03/19 10:03:53;;;;;;;12.70;10.50;;;14.10;99.90;;;;;;6272679;22;20343;-80
2023/03/19 10:06:28;;;;;;;12.00;9.82;;;14.10;99.90;;;;;;6149590;23;20053;-80
2023/03/19 10:09:33;;;;;;;12.57;10.35;;;14.00;99.90;;;;;;6149694;23;20326;-80
2023/03/19 10:12:01;;;;;;;11.48;8.57;;;14.10;99.90;;;;;;6149942;23;20014;-80
2023/03/19 10:14:45;;;;;;;12.73;9.95;;;14.20;99.90;;;;;;6125257;23;20313;-80
2023/03/19 10:17:29;;;;;;;10.90;8.98;;;14.00;99.90;;;;;;6149351;23;20033;-80
2023/03/19 10:20:01;;;;;;;11.35;9.10;;;14.00;99.90;;;;;;6125340;23;20144;-81
2023/03/19 10:22:39;;;;;;;13.90;8.60;;;14.10;99.90;;;;;;6125264;23;20020;-80
2023/03/19 10:25:11;;;;;;;8.95;8.02;;;14.10;99.90;;;;;;6149740;23;20017;-80
2023/03/19 10:27:37;;;;;;;12.15;8.82;;;14.00;99.90;;;;;;6149700;23;20018;-79
2023/03/19 10:30:12;;;;;;;10.02;8.20;;;13.90;99.90;;;;;;6124927;23;20100;-79
2023/03/19 10:32:41;;;;;;;9.25;8.15;;;13.80;99.90;;;;;;6101238;23;20014;-80
2023/03/19 10:35:23;;;;;;;10.27;8.13;;;13.80;99.90;;;;;;6128387;23;20077;-79
2023/03/19 10:37:54;;;;;;;9.27;8.00;;;13.70;99.90;;;;;;6103784;23;20339;-80
2023/03/19 10:40:43;;;;;;;12.20;9.32;;;13.80;99.90;;;;;;6151560;23;20084;-80
2023/03/19 10:43:17;;;;;;;10.18;8.82;;;13.80;99.90;;;;;;6204915;22;20446;-80
2023/03/19 10:45:43;;;;;;;10.73;9.38;;;13.70;99.90;;;;;;6222833;22;20008;-79
2023/03/19 10:48:14;;;;;;;12.65;9.32;;;13.80;99.90;;;;;;6249397;22;20022;-79
2023/03/19 10:50:52;;;;;;;10.13;8.73;;;13.90;99.90;;;;;;6224143;22;20007;-79
2023/03/19 10:53:18;;;;;;;10.80;8.70;;;14.10;99.90;;;;;;6249262;22;20034;-79
2023/03/19 10:55:49;;;;;;;10.10;8.88;;;14.30;99.90;;;;;;6249956;22;20023;-79
2023/03/19 10:58:18;;;;;;;11.13;9.02;;;14.40;99.90;;;;;;6249481;22;20073;-79
2023/03/19 11:00:48;;;;;;;9.88;8.02;;;14.40;99.90;;;;;;6223662;22;20078;-79
2023/03/19 11:03:31;;;;;;;9.88;7.85;;;14.50;99.90;;;;;;6224039;22;20046;-80
2023/03/19 11:06:22;;;;;;;12.00;8.45;;;14.50;99.90;;;;;;6249025;22;20064;-79
2023/03/19 11:09:06;;;;;;;10.90;8.48;;;14.50;99.90;;;;;;6249512;22;20019;-80
2023/03/19 11:11:55;;;;;;;9.45;8.27;;;14.40;99.90;;;;;;6224174;22;20027;-79
2023/03/19 11:14:45;;;;;;;11.80;8.40;;;14.40;99.90;;;;;;6248743;22;20379;-77
2023/03/19 11:17:22;;;;;;;11.73;9.10;;;14.40;99.90;;;;;;6277185;22;20102;-79
2023/03/19 11:19:54;;;;;;;11.52;9.80;;;14.50;99.90;;;;;;6249912;22;20410;-79
2023/03/19 11:22:27;;;;;;;11.98;10.18;;;14.50;99.90;;;;;;6249984;22;20012;-79
2023/03/19 11:24:54;;;;;;;10.80;9.63;;;14.40;99.90;;;;;;6249850;22;20015;-80
2023/03/19 11:27:28;;;;;;;10.70;9.60;;;14.40;99.90;;;;;;6224091;22;20023;-79
2023/03/19 11:29:54;;;;;;;11.13;8.23;;;14.60;99.90;;;;;;6249090;22;20330;-80
2023/03/19 11:33:09;;;;;;;11.38;8.85;;;14.60;99.90;;;;;;6249685;22;20042;-80
2023/03/19 11:35:40;;;;;;;10.25;8.60;;;14.80;99.90;;;;;;6220931;22;20085;-79
2023/03/19 11:38:27;;;;;;;10.18;9.18;;;14.90;99.90;;;;;;6223824;22;20012;-80
2023/03/19 11:41:08;;;;;;;10.73;9.13;;;14.90;99.90;;;;;;6249064;22;20194;-80
2023/03/19 11:43:47;;;;;;;10.75;8.73;;;14.90;99.90;;;;;;6248757;22;20385;-79
2023/03/19 11:46:25;;;;;;;10.20;9.13;;;14.80;99.90;;;;;;6274719;22;20023;-79
2023/03/19 11:49:09;;;;;;;10.05;9.05;;;14.80;99.90;;;;;;6275395;22;20012;-79
2023/03/19 11:52:02;;;;;;;10.98;9.48;;;14.80;99.90;;;;;;6248000;22;20008;-79
2023/03/19 11:54:36;;;;;;;11.15;9.15;;;14.90;99.90;;;;;;6247632;22;20079;-80
2023/03/19 11:57:17;;;;;;;13.02;10.15;;;14.90;99.90;;;;;;6247575;22;20106;-84
2023/03/19 11:59:58;;;;;;;12.65;10.25;;;15.00;99.90;;;;;;6243572;22;20015;-81
2023/03/19 12:03:10;;;;;;;11.50;10.32;;;15.10;99.90;;;;;;6270902;22;20028;-77
2023/03/19 12:05:43;;;;;;;11.68;10.10;;;15.00;99.90;;;;;;6272457;22;20016;-78
2023/03/19 12:08:15;;;;;;;11.07;9.82;;;14.80;99.90;;;;;;6245726;22;20020;-77
2023/03/19 12:10:51;;;;;;;10.85;9.65;;;15.10;99.90;;;;;;6272291;22;20510;-77
2023/03/19 12:13:54;;;;;;;11.10;9.82;;;15.10;99.90;;;;;;6272509;22;20037;-76
2023/03/19 12:16:38;;;;;;;13.00;11.10;;;15.00;99.90;;;;;;6272358;22;20094;-77
2023/03/19 12:19:29;;;;;;;12.02;10.70;;;15.00;99.90;;;;;;6220091;22;20020;-76
2023/03/19 12:22:36;;;;;;;12.55;11.25;;;14.90;99.90;;;;;;6271799;22;20016;-76
2023/03/19 12:25:41;;;;;;;16.25;11.73;;;14.90;99.90;;;;;;6245874;22;20060;-77
2023/03/19 12:28:27;;;;;;;12.00;10.73;;;15.00;99.90;;;;;;6123881;23;20093;-77
2023/03/19 12:30:58;;;;;;;12.43;11.20;;;15.20;99.90;;;;;;6122805;23;20017;-76
2023/03/19 12:33:31;;;;;;;11.98;10.77;;;15.10;99.90;;;;;;6100274;23;20040;-76
2023/03/19 12:35:58;;;;;;;11.38;10.25;;;15.20;99.90;;;;;;6149195;23;20013;-76
2023/03/19 12:38:39;;;;;;;13.82;11.60;;;15.10;99.90;;;;;;6124077;23;20478;-79
2023/03/19 12:41:11;;;;;;;12.85;11.65;;;15.00;99.90;;;;;;6123161;23;20023;-79
2023/03/19 12:43:50;;;;;;;13.98;11.35;;;15.00;99.90;;;;;;6123078;23;20025;-79
2023/03/19 12:46:31;;;;;;;14.10;12.00;;;15.10;99.90;;;;;;6123090;23;20017;-76